Página principal
METAR-TAF:

METAR-TAF

Aeroportos :

Terceira, Açores, Portugal

Base Aérea das Lajes

latitude: 38-46N, longitude: 027-06W, altura: 52 m

Observação actual do tempo

O boletim foi feito há 1 hora e 8 minutos, às 09:00 UTC
Vento 3 kt de es-sudeste
Temperatura 21°C
Humidade 94%
Pressão 1019 hPa
Visibilidade 10 km ou mais
Poucas nuvensa uma altura de 2500 ft

METAR: LPLA 230900Z 12003KT 9999 FEW025 21/20 Q1019

Hora: 10:08 (10:08 UTC)

Previsão

O boletim foi feito há 5 horas e 4 minutos, às 05:04 UTC
Previsão válida de 23 às 06 UTC a 24 às 06 UTC
Vento 5 kt com direcção variável
Visibilidade 10 km ou mais
Nuvens dispersasa uma altura de 2000 ft
Probabilidade 30% :
Temporariamente
de 23 às 06 UTC a 23 às 21 UTC
Visibilidade: 6000 m
Nuvens fragmentadasa uma altura de 1400 ft
aguaceiros fracos de chuva

TAF: LPLA 230504Z 2306/2406 VRB05KT 9999 SCT020 PROB30 TEMPO 2306/2321 6000 -SHRA BKN014

Observações e previsões do tempo de mais de 4000 aeroportos (mensagens METAR e TAF).

As estações disponíveis são os pontos amarelos e vermelhos sobre o mapa.

Mova o rato sobre o mapa para ver o nome da estação.

Depois clique no ponto para visualizar as observações e previsões meteorológicas.

Para alterar o mapa : clique nos botões verdes com uma cruz preta para aumentar o zoom; no botão verde com uma pitada de zoom; ou nas setas verdes para mapas adjacentes.


METAR-TAF: